createdAt,value
2022-10-08T00:02:12.491Z,97965.03
2022-10-08T00:05:01.123Z,97955.72
2022-10-08T00:07:49.624Z,97958.22
2022-10-08T00:10:39.654Z,97947.19
2022-10-08T00:13:40.812Z,97940.34
2022-10-08T00:16:31.688Z,97950.75
2022-10-08T00:19:20.224Z,97950.88
2022-10-08T00:22:08.739Z,97953.72
2022-10-08T00:24:57.880Z,97951.88
2022-10-08T00:27:47.778Z,97946.31
2022-10-08T00:30:38.168Z,97945.75
2022-10-08T00:33:27.672Z,97926.31
2022-10-08T00:36:16.270Z,97940.06
2022-10-08T00:39:06.692Z,97932.94
2022-10-08T00:41:57.210Z,97931.19
2022-10-08T00:44:55.180Z,97925.25
2022-10-08T00:47:46.739Z,97929.75
2022-10-08T00:50:37.653Z,97926.19
2022-10-08T00:53:26.191Z,97921.06
2022-10-08T00:56:15.024Z,97922.13
2022-10-08T00:59:04.019Z,97910.81
2022-10-08T01:01:54.219Z,97914.44
2022-10-08T01:04:44.743Z,97913.59
2022-10-08T01:07:39.994Z,97892.13
2022-10-08T01:10:36.133Z,97856.75
2022-10-08T01:13:39.418Z,97898.78
2022-10-08T01:16:34.936Z,97905.97
2022-10-08T01:19:49.145Z,97911.97
2022-10-08T01:22:51.331Z,97888.53
2022-10-08T01:25:54.439Z,97895.56
2022-10-08T01:28:48.102Z,97896.03
2022-10-08T01:31:43.363Z,97854.31
2022-10-08T01:34:38.307Z,97893.41
2022-10-08T01:37:36.605Z,97890.53
2022-10-08T01:40:31.751Z,97896.97
2022-10-08T01:43:25.040Z,97890.34
2022-10-08T01:46:22.799Z,97896.66
2022-10-08T01:49:15.238Z,97852.66
2022-10-08T01:52:09.082Z,97887.97
2022-10-08T01:55:03.261Z,97882.44
2022-10-08T01:57:55.237Z,97883.22
2022-10-08T02:00:44.161Z,97880.25
2022-10-08T02:03:34.168Z,97878.66
2022-10-08T02:06:24.194Z,97826.72
2022-10-08T02:09:13.109Z,97713.53
2022-10-08T02:12:01.895Z,97869.09
2022-10-08T02:14:54.325Z,97847.72
2022-10-08T02:17:55.064Z,97864.50
2022-10-08T02:20:52.666Z,97865.75
2022-10-08T02:23:47.029Z,97867.75
2022-10-08T02:26:41.840Z,97720.06
2022-10-08T02:29:37.149Z,97862.53
2022-10-08T02:32:31.522Z,97860.31
2022-10-08T02:35:25.533Z,97863.91
2022-10-08T02:38:20.289Z,97861.06
2022-10-08T02:41:11.795Z,97827.97
2022-10-08T02:44:06.715Z,97845.25
2022-10-08T02:47:00.719Z,97864.75
2022-10-08T02:49:54.507Z,97858.59
2022-10-08T02:52:46.312Z,97863.03
2022-10-08T02:55:42.978Z,97871.78
2022-10-08T02:58:32.104Z,97867.28
2022-10-08T03:01:28.772Z,97861.81
2022-10-08T03:04:23.937Z,97862.69
2022-10-08T03:07:13.807Z,97814.03
2022-10-08T03:10:06.830Z,97863.34
2022-10-08T03:13:01.937Z,97858.72
2022-10-08T03:15:52.915Z,97862.34
2022-10-08T03:18:42.507Z,97867.75
2022-10-08T03:21:31.719Z,97755.91
2022-10-08T03:24:20.246Z,97855.50
2022-10-08T03:27:08.727Z,97851.97
2022-10-08T03:29:58.615Z,97857.22
2022-10-08T03:32:47.298Z,97843.34
2022-10-08T03:35:36.014Z,97854.44
2022-10-08T03:38:24.544Z,97842.34
2022-10-08T03:41:13.131Z,97863.72
2022-10-08T03:44:01.691Z,97832.69
2022-10-08T03:46:51.546Z,97862.66
2022-10-08T03:49:40.162Z,97847.16
2022-10-08T03:52:28.708Z,97865.81
2022-10-08T03:55:17.287Z,97864.50
2022-10-08T03:58:05.775Z,97857.63
2022-10-08T04:01:05.702Z,97862.53
2022-10-08T04:03:55.765Z,97840.88
2022-10-08T04:06:44.218Z,97859.81
2022-10-08T04:09:32.785Z,97863.28
2022-10-08T04:12:21.261Z,97858.97
2022-10-08T04:15:10.668Z,97858.53
2022-10-08T04:17:59.131Z,97802.78
2022-10-08T04:20:49.025Z,97851.03
2022-10-08T04:23:39.604Z,97852.59
2022-10-08T04:26:28.061Z,97821.53
2022-10-08T04:29:16.607Z,97852.41
2022-10-08T04:32:05.073Z,97851.47
2022-10-08T04:34:53.558Z,97861.16
2022-10-08T04:37:43.448Z,97859.31
2022-10-08T04:40:31.958Z,97857.94
2022-10-08T04:43:20.429Z,97856.34
2022-10-08T04:46:10.484Z,97850.16
2022-10-08T04:49:00.216Z,97847.53
2022-10-08T04:51:48.775Z,97795.97
2022-10-08T04:54:38.675Z,97778.63
2022-10-08T04:57:27.169Z,97845.34
2022-10-08T05:00:18.549Z,97858.72
2022-10-08T05:03:07.597Z,97855.31
2022-10-08T05:05:56.169Z,97860.56
2022-10-08T05:08:45.510Z,97859.38
2022-10-08T05:11:35.495Z,97864.28
2022-10-08T05:14:24.187Z,97765.41
2022-10-08T05:17:12.710Z,97864.09
2022-10-08T05:20:01.226Z,97861.47
2022-10-08T05:22:49.822Z,97863.59
2022-10-08T05:25:38.547Z,97848.19
2022-10-08T05:28:28.493Z,97865.69
2022-10-08T05:31:17.737Z,97850.38
2022-10-08T05:34:06.833Z,97847.75
2022-10-08T05:36:55.320Z,97872.75
2022-10-08T05:39:43.835Z,97871.69
2022-10-08T05:42:32.429Z,97865.47
2022-10-08T05:45:22.326Z,97861.66
2022-10-08T05:48:10.852Z,97872.19
2022-10-08T05:51:05.665Z,97753.66
2022-10-08T05:53:56.839Z,97862.00
2022-10-08T05:56:45.429Z,97883.50
2022-10-08T05:59:33.987Z,97887.16
2022-10-08T06:02:24.060Z,97879.13
2022-10-08T06:05:12.655Z,97887.69
2022-10-08T06:08:01.190Z,97894.81
2022-10-08T06:10:51.285Z,97873.03
2022-10-08T06:13:40.145Z,97885.78
2022-10-08T06:16:30.150Z,97901.13
2022-10-08T06:19:20.220Z,97897.81
2022-10-08T06:22:08.835Z,97888.19
2022-10-08T06:24:57.323Z,97891.22
2022-10-08T06:27:45.805Z,97888.50
2022-10-08T06:30:34.354Z,97907.75
2022-10-08T06:33:22.945Z,97895.44
2022-10-08T06:36:17.007Z,97877.78
2022-10-08T06:39:07.936Z,97920.44
2022-10-08T06:41:56.699Z,97879.53
2022-10-08T06:44:45.271Z,97917.75
2022-10-08T06:47:34.131Z,97918.91
2022-10-08T06:50:22.626Z,97918.50
2022-10-08T06:53:12.650Z,97906.41
2022-10-08T06:56:02.557Z,97921.91
2022-10-08T06:58:51.355Z,97910.50
2022-10-08T07:01:39.993Z,97926.88
2022-10-08T07:04:28.615Z,97921.19
2022-10-08T07:07:17.084Z,97926.22
2022-10-08T07:10:07.775Z,97905.84
2022-10-08T07:12:56.257Z,97921.06
2022-10-08T07:15:44.806Z,97926.19
2022-10-08T07:18:34.645Z,97930.47
2022-10-08T07:21:23.943Z,97934.16
2022-10-08T07:24:12.655Z,97925.69
2022-10-08T07:27:02.547Z,97936.16
2022-10-08T07:29:51.074Z,97910.22
2022-10-08T07:32:39.579Z,97932.31
2022-10-08T07:35:31.349Z,97922.22
2022-10-08T07:38:19.877Z,97913.00
2022-10-08T07:41:09.834Z,97931.09
2022-10-08T07:44:01.359Z,97897.44
2022-10-08T07:46:51.255Z,97938.13
2022-10-08T07:49:39.770Z,97913.94
2022-10-08T07:52:28.278Z,97929.66
2022-10-08T07:55:17.073Z,97927.88
2022-10-08T07:58:05.741Z,97937.88
2022-10-08T08:00:59.184Z,97929.84
2022-10-08T08:03:47.837Z,97919.13
2022-10-08T08:06:41.392Z,97918.53
2022-10-08T08:09:30.340Z,97919.63
2022-10-08T08:12:18.839Z,97907.06
2022-10-08T08:15:08.445Z,97929.41
2022-10-08T08:17:58.425Z,97924.66
2022-10-08T08:20:46.995Z,97887.47
2022-10-08T08:23:37.855Z,97926.28
2022-10-08T08:26:29.109Z,97902.03
2022-10-08T08:29:19.703Z,97927.38
2022-10-08T08:32:08.243Z,97925.13
2022-10-08T08:34:58.243Z,97915.44
2022-10-08T08:37:46.795Z,97930.38
2022-10-08T08:40:35.291Z,97917.72
2022-10-08T08:43:24.090Z,97908.41
2022-10-08T08:46:18.963Z,97914.06
2022-10-08T08:49:15.517Z,97918.19
2022-10-08T08:52:07.890Z,97915.19
2022-10-08T08:54:56.538Z,97921.56
2022-10-08T08:57:52.295Z,97902.63
2022-10-08T09:00:43.626Z,97918.06
2022-10-08T09:03:36.048Z,97919.94
2022-10-08T09:06:26.494Z,97929.19
2022-10-08T09:09:28.673Z,97918.22
2022-10-08T09:12:21.096Z,97800.59
2022-10-08T09:15:18.959Z,97909.72
2022-10-08T09:18:07.840Z,97929.84
2022-10-08T09:20:56.354Z,97930.97
2022-10-08T09:23:46.466Z,97929.75
2022-10-08T09:26:37.396Z,97883.84
2022-10-08T09:29:34.835Z,97929.78
2022-10-08T09:32:23.586Z,97906.03
2022-10-08T09:35:17.020Z,97912.63
2022-10-08T09:38:06.235Z,97926.78
2022-10-08T09:41:02.738Z,97909.56
2022-10-08T09:44:12.606Z,97915.06
2022-10-08T09:47:06.797Z,97901.09
2022-10-08T09:50:06.209Z,97922.47
2022-10-08T09:52:57.312Z,97896.38
2022-10-08T09:55:53.569Z,97919.88
2022-10-08T09:58:51.461Z,97904.66
2022-10-08T10:01:47.857Z,97894.13
2022-10-08T10:04:38.859Z,97913.50
2022-10-08T10:07:39.244Z,97916.44
2022-10-08T10:10:33.028Z,97899.22
2022-10-08T10:13:29.575Z,97892.31
2022-10-08T10:16:22.790Z,97900.28
2022-10-08T10:19:19.747Z,97890.78
2022-10-08T10:22:14.516Z,97888.03
2022-10-08T10:25:07.213Z,97885.47
2022-10-08T10:28:02.895Z,97899.72
2022-10-08T10:30:58.772Z,97900.66
2022-10-08T10:33:55.888Z,97895.63
2022-10-08T10:36:52.917Z,97874.69
2022-10-08T10:39:46.178Z,97890.28
2022-10-08T10:42:40.843Z,97882.19
2022-10-08T10:45:36.270Z,97881.09
2022-10-08T10:48:24.876Z,97863.50
2022-10-08T10:51:46.727Z,97856.78
2022-10-08T10:54:54.990Z,97863.72
2022-10-08T10:58:07.219Z,97865.88
2022-10-08T11:01:04.710Z,97870.88
2022-10-08T11:04:02.126Z,97860.84
2022-10-08T11:07:02.818Z,97857.75
2022-10-08T11:10:00.196Z,97776.97
2022-10-08T11:12:57.985Z,97863.00
2022-10-08T11:15:56.725Z,97814.50
2022-10-08T11:18:51.265Z,97853.16
2022-10-08T11:21:55.165Z,97853.16
2022-10-08T11:25:08.039Z,97852.28
2022-10-08T11:28:10.104Z,97834.75
2022-10-08T11:31:09.915Z,97849.88
2022-10-08T11:33:59.076Z,97843.84
2022-10-08T11:36:56.780Z,97749.00
2022-10-08T11:39:52.269Z,97837.56
2022-10-08T11:42:51.058Z,97841.28
2022-10-08T11:45:41.854Z,97815.75
2022-10-08T11:48:36.077Z,97820.50
2022-10-08T11:51:41.224Z,97809.13
2022-10-08T11:54:34.536Z,97824.19
2022-10-08T11:57:55.463Z,97820.00
2022-10-08T12:00:44.635Z,97814.63
2022-10-08T12:03:37.343Z,97807.19
2022-10-08T12:06:28.286Z,97814.63
2022-10-08T12:09:24.216Z,97805.66
2022-10-08T12:12:14.980Z,97805.41
2022-10-08T12:15:03.546Z,97807.56
2022-10-08T12:17:54.967Z,97808.41
2022-10-08T12:20:43.594Z,97778.34
2022-10-08T12:23:41.218Z,97771.34
2022-10-08T12:26:29.766Z,97791.84
2022-10-08T12:29:28.610Z,97776.13
2022-10-08T12:32:17.207Z,97750.28
2022-10-08T12:35:20.362Z,97799.69
2022-10-08T12:38:25.324Z,97786.56
2022-10-08T12:41:22.278Z,97781.50
2022-10-08T12:44:25.529Z,97759.38
2022-10-08T12:47:24.408Z,97779.31
2022-10-08T12:50:34.156Z,97764.69
2022-10-08T12:53:23.088Z,97781.38
2022-10-08T12:56:17.369Z,97762.78
2022-10-08T12:59:06.249Z,97764.47
2022-10-08T13:01:55.940Z,97760.94
2022-10-08T13:04:47.759Z,97782.66
2022-10-08T13:07:37.725Z,97774.94
2022-10-08T13:10:28.437Z,97760.00
2022-10-08T13:13:41.862Z,97767.66
2022-10-08T13:16:47.090Z,97769.97
2022-10-08T13:19:37.575Z,97760.38
2022-10-08T13:22:27.798Z,97770.69
2022-10-08T13:25:37.284Z,97771.69
2022-10-08T13:28:48.334Z,97766.38
2022-10-08T13:31:36.425Z,97746.09
2022-10-08T13:34:27.346Z,97751.50
2022-10-08T13:37:17.698Z,97726.91
2022-10-08T13:40:18.555Z,97721.41
2022-10-08T13:43:08.616Z,97757.66
2022-10-08T13:45:57.111Z,97763.16
2022-10-08T13:48:46.083Z,97758.78
2022-10-08T13:51:34.577Z,97741.88
2022-10-08T13:54:25.616Z,97754.00
2022-10-08T13:57:14.655Z,97754.00
2022-10-08T14:00:06.300Z,97754.44
2022-10-08T14:02:54.955Z,97759.75
2022-10-08T14:05:45.642Z,97773.19
2022-10-08T14:08:34.496Z,97761.34
2022-10-08T14:11:23.137Z,97760.34
2022-10-08T14:14:15.041Z,97759.66
2022-10-08T14:17:05.055Z,97732.78
2022-10-08T14:19:54.675Z,97761.81
2022-10-08T14:22:43.314Z,97747.34
2022-10-08T14:25:32.386Z,97763.50
2022-10-08T14:28:20.971Z,97759.34
2022-10-08T14:31:12.946Z,97757.44
2022-10-08T14:34:03.190Z,97758.41
2022-10-08T14:36:55.424Z,97737.88
2022-10-08T14:39:43.978Z,97715.22
2022-10-08T14:42:32.495Z,97751.94
2022-10-08T14:45:22.337Z,97742.69
2022-10-08T14:48:11.865Z,97757.53
2022-10-08T14:51:01.938Z,97758.31
2022-10-08T14:53:51.229Z,97660.19
2022-10-08T14:56:41.397Z,97748.69
2022-10-08T14:59:29.976Z,97764.28
2022-10-08T15:02:18.631Z,97761.84
2022-10-08T15:05:08.047Z,97767.34
2022-10-08T15:07:58.015Z,97768.38
2022-10-08T15:10:47.609Z,97731.09
2022-10-08T15:13:36.181Z,97765.47
2022-10-08T15:16:24.895Z,97779.53
2022-10-08T15:19:13.586Z,97795.69
2022-10-08T15:22:02.116Z,97786.81
2022-10-08T15:24:52.075Z,97795.41
2022-10-08T15:27:40.666Z,97775.25
2022-10-08T15:30:29.161Z,97776.75
2022-10-08T15:33:17.671Z,97807.25
2022-10-08T15:36:06.578Z,97765.50
2022-10-08T15:39:00.156Z,97728.78
2022-10-08T15:41:52.795Z,97811.34
2022-10-08T15:44:44.389Z,97812.91
2022-10-08T15:47:32.923Z,97808.81
2022-10-08T15:50:21.415Z,97819.41
2022-10-08T15:53:09.932Z,97814.03
2022-10-08T15:55:58.781Z,97802.94
2022-10-08T15:58:51.126Z,97821.56
2022-10-08T16:01:40.165Z,97824.16
2022-10-08T16:04:28.915Z,97822.00
2022-10-08T16:07:17.259Z,97816.97
2022-10-08T16:10:06.797Z,97821.16
2022-10-08T16:12:55.322Z,97829.94
2022-10-08T16:15:45.277Z,97811.28
2022-10-08T16:18:33.834Z,97819.88
2022-10-08T16:21:22.365Z,97843.03
2022-10-08T16:24:11.325Z,97835.69
2022-10-08T16:26:59.874Z,97837.59
2022-10-08T16:29:48.105Z,97842.50
2022-10-08T16:32:37.825Z,97844.38
2022-10-08T16:35:26.079Z,97848.56
2022-10-08T16:38:15.080Z,97860.56
2022-10-08T16:41:22.150Z,97844.56
2022-10-08T16:44:13.385Z,97791.66
2022-10-08T16:47:01.984Z,97852.41
2022-10-08T16:49:51.948Z,97866.59
2022-10-08T16:52:40.521Z,97865.53
2022-10-08T16:55:28.979Z,97875.44
2022-10-08T16:58:17.567Z,97876.06
2022-10-08T17:01:07.683Z,97877.50
2022-10-08T17:03:56.687Z,97883.63
2022-10-08T17:06:46.898Z,97875.84
2022-10-08T17:09:37.129Z,97891.19
2022-10-08T17:12:25.858Z,97892.63
2022-10-08T17:15:14.432Z,97901.56
2022-10-08T17:18:03.644Z,97900.31
2022-10-08T17:20:52.190Z,97888.56
2022-10-08T17:23:42.450Z,97877.25
2022-10-08T17:26:32.319Z,97903.88
2022-10-08T17:29:20.889Z,97903.53
2022-10-08T17:32:11.646Z,97895.94
2022-10-08T17:35:00.215Z,97895.63
2022-10-08T17:37:48.847Z,97846.28
2022-10-08T17:40:40.007Z,97915.50
2022-10-08T17:43:28.816Z,97895.22
2022-10-08T17:46:18.694Z,97916.97
2022-10-08T17:49:07.809Z,97911.22
2022-10-08T17:51:57.167Z,97858.69
2022-10-08T17:54:46.256Z,97923.84
2022-10-08T17:57:36.418Z,97881.63
2022-10-08T18:00:26.279Z,97923.50
2022-10-08T18:03:18.387Z,97916.78
2022-10-08T18:06:09.665Z,97917.47
2022-10-08T18:09:00.387Z,97916.00
2022-10-08T18:11:52.232Z,97932.50
2022-10-08T18:14:42.286Z,97930.97
2022-10-08T18:17:31.195Z,97938.25
2022-10-08T18:20:21.286Z,97897.81
2022-10-08T18:23:14.087Z,97915.81
2022-10-08T18:26:11.005Z,97917.66
2022-10-08T18:29:01.344Z,97916.44
2022-10-08T18:31:51.480Z,97894.88
2022-10-08T18:34:40.968Z,97926.56
2022-10-08T18:37:30.893Z,97947.34
2022-10-08T18:40:20.373Z,97948.97
2022-10-08T18:43:10.505Z,97941.19
2022-10-08T18:46:04.251Z,97945.94
2022-10-08T18:48:56.544Z,97943.06
2022-10-08T18:51:52.346Z,97949.50
2022-10-08T18:54:43.008Z,97949.81
2022-10-08T18:57:35.046Z,97944.81
2022-10-08T19:00:25.289Z,97952.91
2022-10-08T19:03:13.957Z,97946.28
2022-10-08T19:06:08.039Z,97938.53
2022-10-08T19:08:57.305Z,97957.84
2022-10-08T19:11:47.287Z,97955.81
2022-10-08T19:14:36.274Z,97958.81
2022-10-08T19:17:24.860Z,97958.38
2022-10-08T19:20:13.674Z,97941.66
2022-10-08T19:23:06.829Z,97906.09
2022-10-08T19:25:55.775Z,97913.06
2022-10-08T19:28:48.293Z,97967.66
2022-10-08T19:31:37.346Z,97972.13
2022-10-08T19:34:29.776Z,97979.44
2022-10-08T19:37:20.485Z,97982.34
2022-10-08T19:40:13.399Z,97986.63
2022-10-08T19:43:03.937Z,97985.84
2022-10-08T19:45:54.145Z,97996.41
2022-10-08T19:48:44.220Z,97992.03
2022-10-08T19:51:38.529Z,98018.94
2022-10-08T19:54:28.529Z,98009.34
2022-10-08T19:57:18.615Z,97996.63
2022-10-08T20:00:09.300Z,98031.16
2022-10-08T20:02:58.846Z,98024.88
2022-10-08T20:05:47.569Z,97984.34
2022-10-08T20:08:36.725Z,98030.34
2022-10-08T20:11:29.389Z,98029.31
2022-10-08T20:14:19.757Z,98021.13
2022-10-08T20:17:08.315Z,98029.31
2022-10-08T20:20:09.665Z,98025.84
2022-10-08T20:23:05.354Z,98028.50
2022-10-08T20:25:53.937Z,98024.06
2022-10-08T20:28:42.643Z,97966.59
2022-10-08T20:31:35.407Z,98025.00
2022-10-08T20:34:27.164Z,98011.66
2022-10-08T20:37:15.733Z,98018.59
2022-10-08T20:40:04.377Z,98018.66
2022-10-08T20:42:52.838Z,98020.09
2022-10-08T20:45:41.336Z,97998.78
2022-10-08T20:48:32.989Z,97968.66
2022-10-08T20:51:23.818Z,98012.84
2022-10-08T20:54:14.131Z,97965.69
2022-10-08T20:57:02.595Z,97930.63
2022-10-08T20:59:51.116Z,97978.88
2022-10-08T21:02:39.585Z,97943.75
2022-10-08T21:05:29.516Z,98017.25
2022-10-08T21:08:18.036Z,98030.97
2022-10-08T21:11:08.436Z,98024.91
2022-10-08T21:13:57.875Z,98027.66
2022-10-08T21:16:46.574Z,98029.81
2022-10-08T21:19:35.089Z,98038.78
2022-10-08T21:22:25.170Z,98043.41
2022-10-08T21:25:13.751Z,97998.81
2022-10-08T21:28:02.380Z,97908.34
2022-10-08T21:30:54.815Z,98039.38
2022-10-08T21:33:44.735Z,98010.72
2022-10-08T21:36:36.016Z,98048.50
2022-10-08T21:39:25.934Z,98047.50
2022-10-08T21:42:14.499Z,98047.88
2022-10-08T21:45:03.079Z,97963.59
2022-10-08T21:47:51.638Z,98038.78
2022-10-08T21:50:40.115Z,98023.38
2022-10-08T21:53:30.678Z,98062.78
2022-10-08T21:56:22.876Z,98066.38
2022-10-08T21:59:13.765Z,98061.28
2022-10-08T22:02:02.293Z,98059.69
2022-10-08T22:04:51.035Z,98047.97
2022-10-08T22:07:39.570Z,98054.56
2022-10-08T22:10:28.039Z,98049.78
2022-10-08T22:13:18.976Z,98066.00
2022-10-08T22:16:08.812Z,98059.88
2022-10-08T22:18:57.947Z,98056.84
2022-10-08T22:21:46.995Z,98047.06
2022-10-08T22:24:36.407Z,98023.59
2022-10-08T22:27:24.985Z,98057.91
2022-10-08T22:30:15.065Z,98054.47
2022-10-08T22:33:03.700Z,98055.09
2022-10-08T22:35:52.273Z,98054.31
2022-10-08T22:38:42.536Z,98009.47
2022-10-08T22:41:32.898Z,98064.31
2022-10-08T22:44:22.091Z,98070.94
2022-10-08T22:47:12.015Z,98072.97
2022-10-08T22:50:00.659Z,98082.47
2022-10-08T22:52:50.889Z,98080.63
2022-10-08T22:55:41.979Z,98095.50
2022-10-08T22:58:30.515Z,98096.25
2022-10-08T23:01:21.230Z,98078.78
2022-10-08T23:04:11.187Z,98104.91
2022-10-08T23:06:59.638Z,98079.53
2022-10-08T23:09:47.925Z,98112.38
2022-10-08T23:12:36.155Z,98119.53
2022-10-08T23:15:24.425Z,98114.59
2022-10-08T23:18:12.616Z,98117.50
2022-10-08T23:21:03.788Z,98130.03
2022-10-08T23:23:53.823Z,98142.84
2022-10-08T23:26:42.185Z,98151.78
2022-10-08T23:29:30.430Z,98161.94
2022-10-08T23:32:18.706Z,98164.34
2022-10-08T23:35:07.330Z,98172.78
2022-10-08T23:37:57.039Z,98184.22
2022-10-08T23:40:45.316Z,98193.19
2022-10-08T23:43:35.504Z,98199.72
2022-10-08T23:46:24.502Z,98209.72
2022-10-08T23:49:12.955Z,98219.88
2022-10-08T23:52:01.212Z,98213.97
2022-10-08T23:54:50.857Z,98209.72
2022-10-08T23:57:39.129Z,98207.31
